createdAt,value
2023-05-21T00:02:00.281Z,99068.25
2023-05-21T00:04:30.039Z,99061.78
2023-05-21T00:07:00.061Z,99063.38
2023-05-21T00:09:27.435Z,99057.38
2023-05-21T00:11:54.909Z,99055.56
2023-05-21T00:14:22.556Z,99058.22
2023-05-21T00:16:49.534Z,99055.41
2023-05-21T00:19:17.421Z,99046.50
2023-05-21T00:21:46.058Z,99049.16
2023-05-21T00:24:13.459Z,99058.91
2023-05-21T00:26:40.881Z,99052.94
2023-05-21T00:29:08.334Z,99050.38
2023-05-21T00:31:35.416Z,99053.47
2023-05-21T00:34:03.069Z,99043.84
2023-05-21T00:36:31.049Z,99037.94
2023-05-21T00:38:58.293Z,99038.69
2023-05-21T00:41:26.372Z,99047.72
2023-05-21T00:43:53.727Z,99039.78
2023-05-21T00:46:21.686Z,99039.25
2023-05-21T00:48:49.739Z,99039.66
2023-05-21T00:51:18.713Z,99041.50
2023-05-21T00:53:46.848Z,99048.44
2023-05-21T00:56:14.224Z,99035.63
2023-05-21T00:58:42.154Z,99040.66
2023-05-21T01:01:13.883Z,99042.44
2023-05-21T01:03:42.635Z,99039.22
2023-05-21T01:06:10.760Z,99033.63
2023-05-21T01:08:40.987Z,99037.28
2023-05-21T01:11:09.984Z,99038.09
2023-05-21T01:13:40.048Z,99030.28
2023-05-21T01:16:09.000Z,99029.31
2023-05-21T01:18:38.293Z,99031.19
2023-05-21T01:21:07.598Z,99031.72
2023-05-21T01:23:35.107Z,99030.28
2023-05-21T01:26:02.610Z,99029.91
2023-05-21T01:28:34.587Z,99028.66
2023-05-21T01:31:08.270Z,99023.06
2023-05-21T01:33:43.914Z,99026.28
2023-05-21T01:36:22.108Z,99025.75
2023-05-21T01:39:04.483Z,99024.50
2023-05-21T01:41:35.403Z,99032.88
2023-05-21T01:44:04.453Z,99021.97
2023-05-21T01:46:34.053Z,99024.22
2023-05-21T01:49:01.536Z,99022.38
2023-05-21T01:51:28.840Z,99018.50
2023-05-21T01:53:56.192Z,99018.34
2023-05-21T01:56:26.114Z,99017.78
2023-05-21T01:58:57.011Z,99013.88
2023-05-21T02:01:24.175Z,99015.88
2023-05-21T02:03:51.787Z,99019.03
2023-05-21T02:06:18.904Z,99026.84
2023-05-21T02:08:46.434Z,99016.69
2023-05-21T02:11:13.411Z,99013.34
2023-05-21T02:13:42.699Z,99005.41
2023-05-21T02:16:15.241Z,99000.22
2023-05-21T02:18:46.630Z,99006.94
2023-05-21T02:21:13.946Z,99003.31
2023-05-21T02:23:42.803Z,98993.56
2023-05-21T02:26:09.980Z,98996.91
2023-05-21T02:28:37.529Z,98998.53
2023-05-21T02:31:04.689Z,98991.72
2023-05-21T02:33:32.272Z,99002.06
2023-05-21T02:35:59.183Z,98992.59
2023-05-21T02:38:26.797Z,99002.59
2023-05-21T02:40:53.879Z,99001.38
2023-05-21T02:43:21.376Z,99010.94
2023-05-21T02:45:48.291Z,99006.34
2023-05-21T02:48:16.058Z,99007.19
2023-05-21T02:50:43.049Z,98995.19
2023-05-21T02:53:10.231Z,98993.69
2023-05-21T02:55:37.961Z,98992.72
2023-05-21T02:58:05.593Z,99001.91
2023-05-21T03:00:32.781Z,98989.66
2023-05-21T03:03:00.476Z,98995.53
2023-05-21T03:05:27.444Z,98997.59
2023-05-21T03:07:55.029Z,98990.06
2023-05-21T03:10:22.159Z,98993.66
2023-05-21T03:12:49.497Z,98995.50
2023-05-21T03:15:16.582Z,98996.22
2023-05-21T03:17:44.609Z,98992.94
2023-05-21T03:20:16.700Z,98998.81
2023-05-21T03:22:44.868Z,98999.41
2023-05-21T03:25:12.938Z,98993.56
2023-05-21T03:27:40.541Z,98990.50
2023-05-21T03:30:08.138Z,98991.59
2023-05-21T03:32:38.139Z,98986.69
2023-05-21T03:35:06.012Z,98970.34
2023-05-21T03:37:33.260Z,98978.22
2023-05-21T03:40:00.891Z,98974.84
2023-05-21T03:42:28.189Z,98967.84
2023-05-21T03:44:55.257Z,98978.34
2023-05-21T03:47:23.048Z,98970.91
2023-05-21T03:49:50.203Z,98981.91
2023-05-21T03:52:17.456Z,98973.66
2023-05-21T03:54:44.757Z,98962.25
2023-05-21T03:57:12.136Z,98961.59
2023-05-21T03:59:39.088Z,98944.63
2023-05-21T04:02:07.089Z,98956.00
2023-05-21T04:04:34.083Z,98949.75
2023-05-21T04:07:01.397Z,98940.44
2023-05-21T04:09:29.061Z,98940.91
2023-05-21T04:11:56.563Z,98942.75
2023-05-21T04:14:24.010Z,98943.38
2023-05-21T04:16:51.817Z,98942.81
2023-05-21T04:19:19.179Z,98945.44
2023-05-21T04:21:46.658Z,98935.09
2023-05-21T04:24:14.063Z,98934.38
2023-05-21T04:26:42.675Z,98943.34
2023-05-21T04:29:10.264Z,98934.88
2023-05-21T04:31:37.881Z,98935.88
2023-05-21T04:34:05.272Z,98934.31
2023-05-21T04:36:34.099Z,98940.28
2023-05-21T04:39:01.937Z,98947.09
2023-05-21T04:41:29.267Z,98952.16
2023-05-21T04:43:56.345Z,98943.59
2023-05-21T04:46:25.606Z,98944.09
2023-05-21T04:48:55.315Z,98942.19
2023-05-21T04:51:24.928Z,98944.69
2023-05-21T04:53:52.302Z,98944.31
2023-05-21T04:56:19.727Z,98942.47
2023-05-21T04:58:48.099Z,98943.16
2023-05-21T05:01:16.442Z,98956.72
2023-05-21T05:03:43.742Z,98946.50
2023-05-21T05:06:10.994Z,98950.53
2023-05-21T05:08:38.320Z,98946.56
2023-05-21T05:11:05.681Z,98944.28
2023-05-21T05:13:32.619Z,98946.88
2023-05-21T05:16:00.539Z,98950.09
2023-05-21T05:18:27.560Z,98938.44
2023-05-21T05:20:54.956Z,98939.16
2023-05-21T05:23:22.087Z,98945.09
2023-05-21T05:25:49.644Z,98937.44
2023-05-21T05:28:16.998Z,98935.09
2023-05-21T05:30:44.760Z,98937.81
2023-05-21T05:33:12.170Z,98939.03
2023-05-21T05:35:39.466Z,98937.75
2023-05-21T05:38:09.175Z,98944.50
2023-05-21T05:40:36.852Z,98940.97
2023-05-21T05:43:04.169Z,98938.63
2023-05-21T05:45:31.586Z,98939.75
2023-05-21T05:47:58.749Z,98934.97
2023-05-21T05:50:26.782Z,98940.19
2023-05-21T05:52:53.977Z,98939.25
2023-05-21T05:55:22.202Z,98936.75
2023-05-21T05:57:49.346Z,98946.75
2023-05-21T06:00:17.593Z,98946.03
2023-05-21T06:02:44.919Z,98936.13
2023-05-21T06:05:12.352Z,98927.56
2023-05-21T06:07:40.764Z,98933.47
2023-05-21T06:10:08.709Z,98935.75
2023-05-21T06:12:35.867Z,98933.94
2023-05-21T06:15:03.588Z,98930.72
2023-05-21T06:17:31.873Z,98925.13
2023-05-21T06:19:59.611Z,98929.69
2023-05-21T06:22:26.777Z,98928.88
2023-05-21T06:24:54.096Z,98924.66
2023-05-21T06:27:21.092Z,98920.09
2023-05-21T06:29:48.497Z,98920.03
2023-05-21T06:32:15.545Z,98915.38
2023-05-21T06:34:42.906Z,98919.53
2023-05-21T06:37:10.245Z,98917.66
2023-05-21T06:39:37.644Z,98914.84
2023-05-21T06:42:04.792Z,98911.69
2023-05-21T06:44:32.316Z,98913.66
2023-05-21T06:46:59.466Z,98901.31
2023-05-21T06:49:26.791Z,98907.19
2023-05-21T06:51:54.035Z,98905.81
2023-05-21T06:54:21.318Z,98905.03
2023-05-21T06:56:48.544Z,98910.53
2023-05-21T06:59:16.930Z,98898.66
2023-05-21T07:01:44.621Z,98901.69
2023-05-21T07:04:12.576Z,98905.19
2023-05-21T07:06:40.231Z,98896.84
2023-05-21T07:09:07.754Z,98895.78
2023-05-21T07:11:35.232Z,98898.34
2023-05-21T07:14:04.137Z,98887.03
2023-05-21T07:16:31.456Z,98887.28
2023-05-21T07:18:59.034Z,98891.78
2023-05-21T07:21:26.308Z,98896.78
2023-05-21T07:23:54.229Z,98889.69
2023-05-21T07:26:21.804Z,98893.38
2023-05-21T07:28:49.370Z,98896.69
2023-05-21T07:31:16.854Z,98888.41
2023-05-21T07:33:44.596Z,98887.19
2023-05-21T07:36:12.024Z,98893.19
2023-05-21T07:38:40.366Z,98888.75
2023-05-21T07:41:07.479Z,98891.84
2023-05-21T07:43:35.585Z,98879.09
2023-05-21T07:46:03.203Z,98887.41
2023-05-21T07:48:30.572Z,98891.59
2023-05-21T07:50:58.850Z,98886.16
2023-05-21T07:53:26.249Z,98883.34
2023-05-21T07:55:53.591Z,98879.72
2023-05-21T07:58:21.093Z,98889.53
2023-05-21T08:00:48.448Z,98886.22
2023-05-21T08:03:18.196Z,98895.09
2023-05-21T08:05:50.957Z,98880.38
2023-05-21T08:08:19.611Z,98888.78
2023-05-21T08:10:48.095Z,98879.81
2023-05-21T08:13:16.674Z,98876.88
2023-05-21T08:15:44.232Z,98891.63
2023-05-21T08:18:12.193Z,98885.50
2023-05-21T08:20:39.436Z,98885.00
2023-05-21T08:23:07.144Z,98883.91
2023-05-21T08:25:34.973Z,98887.13
2023-05-21T08:28:02.982Z,98869.88
2023-05-21T08:32:57.649Z,98877.97
2023-05-21T08:35:24.999Z,98870.53
2023-05-21T08:37:52.760Z,98872.38
2023-05-21T08:40:20.098Z,98869.59
2023-05-21T08:42:51.129Z,98868.91
2023-05-21T08:45:22.691Z,98866.34
2023-05-21T08:47:59.627Z,98871.81
2023-05-21T08:50:28.064Z,98866.63
2023-05-21T08:52:55.769Z,98869.75
2023-05-21T08:55:23.813Z,98865.81
2023-05-21T08:57:51.242Z,98865.19
2023-05-21T09:00:20.832Z,98855.06
2023-05-21T09:02:48.229Z,98853.97
2023-05-21T09:05:15.941Z,98856.28
2023-05-21T09:07:49.816Z,98855.06
2023-05-21T09:10:24.516Z,98845.50
2023-05-21T09:12:51.974Z,98848.31
2023-05-21T09:15:19.286Z,98843.97
2023-05-21T09:17:48.379Z,98843.28
2023-05-21T09:20:18.976Z,98849.56
2023-05-21T09:22:48.336Z,98840.13
2023-05-21T09:25:21.793Z,98845.91
2023-05-21T09:27:49.326Z,98837.94
2023-05-21T09:30:18.119Z,98842.28
2023-05-21T09:32:46.711Z,98845.47
2023-05-21T09:35:15.835Z,98837.19
2023-05-21T09:37:45.355Z,98838.63
2023-05-21T09:40:20.227Z,98844.44
2023-05-21T09:42:52.551Z,98828.22
2023-05-21T09:45:20.679Z,98834.41
2023-05-21T09:47:49.391Z,98834.75
2023-05-21T09:50:28.141Z,98833.34
2023-05-21T09:52:56.274Z,98830.81
2023-05-21T09:55:24.398Z,98829.06
2023-05-21T09:57:52.166Z,98824.25
2023-05-21T10:00:23.914Z,98816.28
2023-05-21T10:02:56.090Z,98813.56
2023-05-21T10:05:29.687Z,98810.19
2023-05-21T10:08:04.865Z,98811.81
2023-05-21T10:10:32.741Z,98803.84
2023-05-21T10:13:09.453Z,98809.31
2023-05-21T10:15:43.349Z,98809.69
2023-05-21T10:18:12.589Z,98805.59
2023-05-21T10:20:40.402Z,98799.34
2023-05-21T10:23:08.088Z,98802.47
2023-05-21T10:25:35.774Z,98799.59
2023-05-21T10:28:03.382Z,98804.19
2023-05-21T10:30:30.405Z,98793.31
2023-05-21T10:32:58.823Z,98801.81
2023-05-21T10:35:26.226Z,98797.84
2023-05-21T10:37:54.840Z,98794.56
2023-05-21T10:40:22.130Z,98797.34
2023-05-21T10:43:23.478Z,98790.97
2023-05-21T10:46:17.216Z,98794.72
2023-05-21T10:49:09.139Z,98783.78
2023-05-21T10:52:18.514Z,98778.22
2023-05-21T10:55:01.389Z,98781.50
2023-05-21T10:58:13.553Z,98786.75
2023-05-21T11:00:42.875Z,98788.16
2023-05-21T11:03:13.120Z,98785.94
2023-05-21T11:05:42.599Z,98780.72
2023-05-21T11:08:25.235Z,98780.56
2023-05-21T11:10:58.470Z,98776.19
2023-05-21T11:13:27.056Z,98771.28
2023-05-21T11:16:01.522Z,98765.84
2023-05-21T11:18:40.438Z,98772.97
2023-05-21T11:21:14.849Z,98783.16
2023-05-21T11:23:51.518Z,98771.22
2023-05-21T11:26:21.934Z,98769.56
2023-05-21T11:29:08.754Z,98765.59
2023-05-21T11:31:39.990Z,98769.09
2023-05-21T11:34:14.334Z,98766.88
2023-05-21T11:36:48.131Z,98762.75
2023-05-21T11:39:18.150Z,98761.50
2023-05-21T11:41:52.463Z,98766.94
2023-05-21T11:44:22.329Z,98755.53
2023-05-21T11:46:50.012Z,98757.75
2023-05-21T11:49:28.659Z,98746.69
2023-05-21T11:51:56.733Z,98761.31
2023-05-21T11:54:26.181Z,98763.34
2023-05-21T11:56:54.987Z,98762.00
2023-05-21T11:59:21.967Z,98756.75
2023-05-21T12:01:49.292Z,98753.25
2023-05-21T12:04:16.392Z,98758.38
2023-05-21T12:06:43.964Z,98762.94
2023-05-21T12:09:11.521Z,98755.31
2023-05-21T12:11:41.952Z,98756.75
2023-05-21T12:14:10.585Z,98750.38
2023-05-21T12:16:39.569Z,98765.22
2023-05-21T12:19:07.173Z,98762.84
2023-05-21T12:21:35.857Z,98760.22
2023-05-21T12:24:03.466Z,98758.41
2023-05-21T12:26:33.325Z,98763.56
2023-05-21T12:29:00.585Z,98762.06
2023-05-21T12:31:31.130Z,98764.13
2023-05-21T12:33:58.569Z,98764.25
2023-05-21T12:36:31.867Z,98752.44
2023-05-21T12:38:59.082Z,98745.19
2023-05-21T12:41:27.024Z,98754.66
2023-05-21T12:43:53.979Z,98741.47
2023-05-21T12:46:23.458Z,98755.53
2023-05-21T12:48:54.022Z,98764.81
2023-05-21T12:51:21.393Z,98746.41
2023-05-21T12:53:48.983Z,98742.50
2023-05-21T12:56:17.147Z,98736.94
2023-05-21T12:58:50.470Z,98745.19
2023-05-21T13:01:18.640Z,98740.22
2023-05-21T13:03:45.821Z,98746.84
2023-05-21T13:06:13.446Z,98733.56
2023-05-21T13:08:40.707Z,98738.34
2023-05-21T13:11:08.037Z,98733.81
2023-05-21T13:13:35.032Z,98731.34
2023-05-21T13:16:02.488Z,98722.84
2023-05-21T13:18:29.545Z,98722.88
2023-05-21T13:20:56.986Z,98731.28
2023-05-21T13:23:24.918Z,98729.78
2023-05-21T13:25:52.427Z,98731.38
2023-05-21T13:28:19.632Z,98727.19
2023-05-21T13:30:47.334Z,98729.63
2023-05-21T13:33:14.714Z,98712.66
2023-05-21T13:35:42.096Z,98728.22
2023-05-21T13:38:09.737Z,98732.69
2023-05-21T13:40:39.036Z,98710.44
2023-05-21T13:43:06.752Z,98721.09
2023-05-21T13:45:34.862Z,98728.22
2023-05-21T13:48:01.964Z,98723.63
2023-05-21T13:50:29.665Z,98722.41
2023-05-21T13:52:57.111Z,98727.59
2023-05-21T13:55:24.383Z,98724.94
2023-05-21T13:57:51.692Z,98716.22
2023-05-21T14:00:19.258Z,98716.66
2023-05-21T14:02:46.343Z,98719.13
2023-05-21T14:05:14.350Z,98706.88
2023-05-21T14:07:42.344Z,98710.88
2023-05-21T14:10:09.983Z,98715.34
2023-05-21T14:12:38.630Z,98716.00
2023-05-21T14:15:06.894Z,98715.66
2023-05-21T14:17:33.973Z,98715.72
2023-05-21T14:20:01.244Z,98720.09
2023-05-21T14:22:28.612Z,98719.38
2023-05-21T14:24:56.377Z,98729.38
2023-05-21T14:27:23.450Z,98716.59
2023-05-21T14:29:51.186Z,98718.50
2023-05-21T14:32:19.377Z,98720.78
2023-05-21T14:34:46.706Z,98704.81
2023-05-21T14:37:14.171Z,98716.16
2023-05-21T14:39:41.461Z,98711.41
2023-05-21T14:42:08.527Z,98709.31
2023-05-21T14:44:36.227Z,98713.16
2023-05-21T14:47:03.538Z,98710.31
2023-05-21T14:49:31.105Z,98703.03
2023-05-21T14:51:58.526Z,98713.13
2023-05-21T14:54:25.892Z,98705.28
2023-05-21T14:56:53.646Z,98696.00
2023-05-21T14:59:21.125Z,98706.53
2023-05-21T15:01:48.249Z,98703.00
2023-05-21T15:04:15.655Z,98710.66
2023-05-21T15:06:42.998Z,98706.09
2023-05-21T15:09:10.793Z,98707.16
2023-05-21T15:11:39.902Z,98716.44
2023-05-21T15:14:07.350Z,98711.69
2023-05-21T15:16:34.460Z,98721.22
2023-05-21T15:19:01.894Z,98710.00
2023-05-21T15:21:29.819Z,98715.41
2023-05-21T15:23:57.144Z,98719.78
2023-05-21T15:26:25.687Z,98707.59
2023-05-21T15:28:53.300Z,98708.59
2023-05-21T15:31:20.385Z,98716.19
2023-05-21T15:33:47.884Z,98704.88
2023-05-21T15:36:15.561Z,98707.72
2023-05-21T15:38:42.810Z,98712.81
2023-05-21T15:41:09.914Z,98711.09
2023-05-21T15:43:38.429Z,98716.84
2023-05-21T15:46:05.653Z,98707.22
2023-05-21T15:48:33.076Z,98702.31
2023-05-21T15:51:00.599Z,98704.31
2023-05-21T15:53:27.907Z,98707.56
2023-05-21T15:55:54.950Z,98703.88
2023-05-21T15:58:23.041Z,98709.75
2023-05-21T16:00:50.109Z,98705.06
2023-05-21T16:03:17.516Z,98718.47
2023-05-21T16:05:44.875Z,98717.38
2023-05-21T16:08:12.392Z,98717.81
2023-05-21T16:10:40.146Z,98712.50
2023-05-21T16:13:08.211Z,98717.63
2023-05-21T16:15:35.335Z,98715.97
2023-05-21T16:18:03.136Z,98712.50
2023-05-21T16:20:31.166Z,98719.28
2023-05-21T16:22:58.589Z,98722.13
2023-05-21T16:25:25.758Z,98719.56
2023-05-21T16:27:54.812Z,98716.59
2023-05-21T16:30:21.928Z,98716.00
2023-05-21T16:32:49.526Z,98715.94
2023-05-21T16:35:17.362Z,98717.69
2023-05-21T16:37:45.138Z,98725.72
2023-05-21T16:40:13.149Z,98721.75
2023-05-21T16:42:40.896Z,98713.78
2023-05-21T16:45:08.930Z,98722.28
2023-05-21T16:47:38.873Z,98719.53
2023-05-21T16:50:07.329Z,98720.22
2023-05-21T16:52:35.105Z,98722.50
2023-05-21T16:55:02.701Z,98725.72
2023-05-21T16:57:30.492Z,98726.06
2023-05-21T16:59:57.827Z,98727.28
2023-05-21T17:02:25.692Z,98720.75
2023-05-21T17:04:53.123Z,98730.41
2023-05-21T17:07:20.956Z,98732.31
2023-05-21T17:09:48.674Z,98730.00
2023-05-21T17:12:16.430Z,98738.63
2023-05-21T17:14:43.636Z,98728.09
2023-05-21T17:17:11.209Z,98725.84
2023-05-21T17:19:43.931Z,98740.50
2023-05-21T17:22:13.832Z,98732.28
2023-05-21T17:24:41.416Z,98728.31
2023-05-21T17:27:09.004Z,98736.06
2023-05-21T17:29:36.456Z,98735.13
2023-05-21T17:32:07.468Z,98729.84
2023-05-21T17:34:34.809Z,98727.81
2023-05-21T17:37:02.836Z,98732.22
2023-05-21T17:39:30.029Z,98730.72
2023-05-21T17:41:57.613Z,98732.25
2023-05-21T17:44:24.799Z,98736.56
2023-05-21T17:46:53.091Z,98734.56
2023-05-21T17:49:20.098Z,98736.66
2023-05-21T17:51:48.211Z,98741.50
2023-05-21T17:54:15.990Z,98738.91
2023-05-21T17:56:45.518Z,98737.47
2023-05-21T17:59:14.758Z,98734.72
2023-05-21T18:01:42.395Z,98737.63
2023-05-21T18:04:11.008Z,98730.00
2023-05-21T18:06:41.617Z,98728.13
2023-05-21T18:09:10.652Z,98734.38
2023-05-21T18:11:39.247Z,98731.94
2023-05-21T18:14:06.300Z,98733.34
2023-05-21T18:16:33.900Z,98737.38
2023-05-21T18:19:05.765Z,98739.28
2023-05-21T18:21:35.857Z,98742.66
2023-05-21T18:24:03.398Z,98745.97
2023-05-21T18:26:30.815Z,98745.41
2023-05-21T18:28:58.493Z,98748.47
2023-05-21T18:31:26.121Z,98744.47
2023-05-21T18:33:53.331Z,98740.72
2023-05-21T18:36:20.572Z,98743.22
2023-05-21T18:38:48.513Z,98742.66
2023-05-21T18:41:16.156Z,98749.72
2023-05-21T18:43:43.201Z,98754.19
2023-05-21T18:46:11.041Z,98746.94
2023-05-21T18:48:38.250Z,98740.75
2023-05-21T18:51:05.565Z,98744.25
2023-05-21T18:53:33.132Z,98742.25
2023-05-21T18:56:00.528Z,98744.75
2023-05-21T18:58:29.349Z,98747.63
2023-05-21T19:00:57.020Z,98751.09
2023-05-21T19:03:24.062Z,98742.47
2023-05-21T19:05:51.620Z,98740.47
2023-05-21T19:08:18.807Z,98746.44
2023-05-21T19:10:46.236Z,98745.59
2023-05-21T19:13:13.420Z,98761.53
2023-05-21T19:15:41.110Z,98767.03
2023-05-21T19:18:08.753Z,98765.88
2023-05-21T19:20:37.080Z,98770.69
2023-05-21T19:23:04.711Z,98772.13
2023-05-21T19:25:32.503Z,98779.47
2023-05-21T19:28:00.954Z,98768.28
2023-05-21T19:30:28.474Z,98772.22
2023-05-21T19:32:56.545Z,98770.78
2023-05-21T19:35:23.963Z,98775.56
2023-05-21T19:37:51.820Z,98781.88
2023-05-21T19:40:19.361Z,98775.41
2023-05-21T19:42:46.685Z,98781.16
2023-05-21T19:45:15.662Z,98776.19
2023-05-21T19:47:43.556Z,98765.19
2023-05-21T19:50:11.927Z,98775.53
2023-05-21T19:52:39.624Z,98771.78
2023-05-21T19:55:08.894Z,98778.34
2023-05-21T19:57:39.839Z,98769.91
2023-05-21T20:00:10.574Z,98766.34
2023-05-21T20:02:37.717Z,98767.38
2023-05-21T20:05:05.480Z,98769.00
2023-05-21T20:07:32.968Z,98764.31
2023-05-21T20:10:01.085Z,98770.16
2023-05-21T20:12:28.465Z,98771.84
2023-05-21T20:14:56.980Z,98771.84
2023-05-21T20:17:24.809Z,98770.69
2023-05-21T20:19:52.323Z,98767.94
2023-05-21T20:22:19.776Z,98763.16
2023-05-21T20:24:47.226Z,98765.81
2023-05-21T20:27:19.675Z,98767.72
2023-05-21T20:29:47.687Z,98766.72
2023-05-21T20:32:14.763Z,98770.72
2023-05-21T20:34:50.732Z,98773.28
2023-05-21T20:37:29.255Z,98768.63
2023-05-21T20:39:58.165Z,98763.91
2023-05-21T20:42:28.652Z,98767.94
2023-05-21T20:44:59.987Z,98759.75
2023-05-21T20:47:30.260Z,98764.63
2023-05-21T20:50:03.270Z,98760.16
2023-05-21T20:52:31.035Z,98766.69
2023-05-21T20:54:59.875Z,98757.13
2023-05-21T20:57:28.678Z,98759.03
2023-05-21T20:59:56.473Z,98754.03
2023-05-21T21:02:23.684Z,98755.00
2023-05-21T21:04:51.772Z,98749.91
2023-05-21T21:07:19.349Z,98744.69
2023-05-21T21:09:47.500Z,98753.34
2023-05-21T21:12:25.938Z,98754.88
2023-05-21T21:14:54.217Z,98755.72
2023-05-21T21:17:22.251Z,98759.44
2023-05-21T21:19:49.822Z,98763.44
2023-05-21T21:22:18.414Z,98754.72
2023-05-21T21:24:46.306Z,98753.28
2023-05-21T21:27:13.664Z,98758.69
2023-05-21T21:29:41.059Z,98758.19
2023-05-21T21:32:08.712Z,98759.97
2023-05-21T21:34:36.145Z,98764.13
2023-05-21T21:37:03.240Z,98759.38
2023-05-21T21:39:31.197Z,98760.91
2023-05-21T21:41:58.263Z,98760.38
2023-05-21T21:44:25.774Z,98758.25
2023-05-21T21:46:53.209Z,98774.03
2023-05-21T21:49:20.662Z,98766.66
2023-05-21T21:51:48.593Z,98766.16
2023-05-21T21:54:16.565Z,98765.47
2023-05-21T21:56:43.617Z,98756.84
2023-05-21T21:59:10.979Z,98758.13
2023-05-21T22:01:38.623Z,98759.25
2023-05-21T22:04:06.077Z,98760.47
2023-05-21T22:06:33.259Z,98758.81
2023-05-21T22:09:01.510Z,98749.78
2023-05-21T22:11:28.614Z,98756.41
2023-05-21T22:13:56.275Z,98754.03
2023-05-21T22:16:27.881Z,98762.19
2023-05-21T22:18:55.355Z,98764.41
2023-05-21T22:21:27.308Z,98757.13
2023-05-21T22:23:55.882Z,98759.63
2023-05-21T22:26:23.393Z,98759.34
2023-05-21T22:28:51.565Z,98752.53
2023-05-21T22:31:19.250Z,98750.06
2023-05-21T22:33:46.913Z,98746.34
2023-05-21T22:36:13.947Z,98749.69
2023-05-21T22:38:41.603Z,98748.59
2023-05-21T22:41:08.889Z,98742.94
2023-05-21T22:43:37.251Z,98749.59
2023-05-21T22:46:04.685Z,98743.34
2023-05-21T22:48:32.054Z,98746.09
2023-05-21T22:51:02.037Z,98746.94
2023-05-21T22:53:29.908Z,98748.25
2023-05-21T22:55:56.906Z,98756.19
2023-05-21T22:58:24.169Z,98752.88
2023-05-21T23:00:51.451Z,98750.78
2023-05-21T23:03:18.844Z,98746.75
2023-05-21T23:05:46.318Z,98749.56
2023-05-21T23:08:14.157Z,98758.50
2023-05-21T23:10:41.479Z,98747.25
2023-05-21T23:13:09.089Z,98751.00
2023-05-21T23:15:39.046Z,98740.41
2023-05-21T23:18:07.976Z,98735.97
2023-05-21T23:20:35.366Z,98733.22
2023-05-21T23:23:03.186Z,98729.69
2023-05-21T23:25:30.237Z,98723.56
2023-05-21T23:27:57.493Z,98724.28
2023-05-21T23:30:24.989Z,98725.13
2023-05-21T23:32:52.333Z,98719.25
2023-05-21T23:35:20.147Z,98720.53
2023-05-21T23:37:47.897Z,98719.00
2023-05-21T23:40:15.053Z,98730.56
2023-05-21T23:42:42.552Z,98727.88
2023-05-21T23:45:10.534Z,98726.75
2023-05-21T23:47:37.791Z,98727.03
2023-05-21T23:50:05.509Z,98734.97
2023-05-21T23:52:33.484Z,98731.91
2023-05-21T23:55:00.426Z,98738.47
2023-05-21T23:57:27.664Z,98731.91
2023-05-21T23:59:55.248Z,98736.75
